createdAt,value
2023-03-25T00:04:29.841Z,96788.88
2023-03-25T00:07:27.212Z,96782.00
2023-03-25T00:10:18.378Z,96772.03
2023-03-25T00:16:43.426Z,96781.41
2023-03-25T00:19:27.659Z,96780.09
2023-03-25T00:25:47.834Z,96775.81
2023-03-25T00:28:47.466Z,96778.19
2023-03-25T00:34:41.147Z,96769.91
2023-03-25T00:37:36.594Z,96771.78
2023-03-25T00:43:23.603Z,96768.00
2023-03-25T00:46:02.297Z,96762.03
2023-03-25T00:48:54.662Z,96758.97
2023-03-25T00:51:53.292Z,96767.53
2023-03-25T00:54:38.485Z,96772.97
2023-03-25T00:57:27.079Z,96765.75
2023-03-25T01:00:09.777Z,96760.28
2023-03-25T01:02:42.578Z,96767.53
2023-03-25T01:05:26.178Z,96748.91
2023-03-25T01:10:44.180Z,96754.94
2023-03-25T01:13:11.902Z,96754.47
2023-03-25T01:15:41.631Z,96758.16
2023-03-25T01:18:10.492Z,96749.50
2023-03-25T01:23:33.792Z,96744.13
2023-03-25T01:26:05.560Z,96738.44
2023-03-25T01:28:41.570Z,96735.00
2023-03-25T01:31:21.739Z,96734.41
2023-03-25T01:34:05.562Z,96731.44
2023-03-25T01:36:43.664Z,96720.53
2023-03-25T01:39:16.142Z,96717.69
2023-03-25T01:41:50.292Z,96714.16
2023-03-25T01:44:27.904Z,96718.88
2023-03-25T01:47:10.193Z,96713.56
2023-03-25T01:49:44.967Z,96708.78
2023-03-25T01:52:18.844Z,96708.19
2023-03-25T01:54:51.541Z,96707.00
2023-03-25T01:57:34.091Z,96710.28
2023-03-25T02:00:10.089Z,96711.84
2023-03-25T02:02:50.273Z,96714.34
2023-03-25T02:05:33.303Z,96714.09
2023-03-25T02:08:15.702Z,96706.53
2023-03-25T02:11:07.926Z,96705.09
2023-03-25T02:13:37.980Z,96697.63
2023-03-25T02:16:27.716Z,96697.03
2023-03-25T02:19:44.852Z,96704.59
2023-03-25T02:26:07.707Z,96703.38
2023-03-25T02:29:09.494Z,96709.31
2023-03-25T02:35:41.482Z,96696.75
2023-03-25T02:38:47.664Z,96701.16
2023-03-25T02:41:26.463Z,96704.31
2023-03-25T02:44:12.389Z,96694.34
2023-03-25T02:46:48.704Z,96696.13
2023-03-25T02:49:44.195Z,96679.91
2023-03-25T02:52:40.069Z,96678.94
2023-03-25T02:55:11.899Z,96677.28
2023-03-25T02:57:56.296Z,96682.28
2023-03-25T03:00:31.126Z,96680.34
2023-03-25T03:03:05.709Z,96674.22
2023-03-25T03:05:39.414Z,96674.22
2023-03-25T03:08:19.778Z,96683.06
2023-03-25T03:11:30.567Z,96680.47
2023-03-25T03:14:25.713Z,96678.31
2023-03-25T03:17:25.338Z,96678.88
2023-03-25T03:23:10.074Z,96674.06
2023-03-25T03:26:00.432Z,96676.28
2023-03-25T03:32:21.887Z,96676.97
2023-03-25T03:35:01.929Z,96675.63
2023-03-25T03:37:42.128Z,96673.16
2023-03-25T03:40:49.866Z,96670.03
2023-03-25T03:43:35.223Z,96672.63
2023-03-25T03:46:15.073Z,96668.97
2023-03-25T03:48:58.946Z,96669.59
2023-03-25T03:51:58.270Z,96664.59
2023-03-25T03:54:28.313Z,96665.03
2023-03-25T03:56:59.304Z,96664.34
2023-03-25T03:59:46.152Z,96651.31
2023-03-25T04:02:49.564Z,96651.31
2023-03-25T04:05:18.365Z,96649.38
2023-03-25T04:08:00.964Z,96659.06
2023-03-25T04:10:47.117Z,96657.75
2023-03-25T04:13:17.920Z,96668.28
2023-03-25T04:15:44.883Z,96666.84
2023-03-25T04:18:17.854Z,96668.97
2023-03-25T04:20:49.855Z,96672.19
2023-03-25T04:23:16.757Z,96672.78
2023-03-25T04:25:47.819Z,96674.69
2023-03-25T04:28:17.827Z,96673.25
2023-03-25T04:30:49.025Z,96664.50
2023-03-25T04:33:15.927Z,96666.97
2023-03-25T04:35:43.225Z,96669.72
2023-03-25T04:38:10.235Z,96676.69
2023-03-25T04:40:40.811Z,96683.72
2023-03-25T04:43:07.776Z,96687.03
2023-03-25T04:45:36.545Z,96687.53
2023-03-25T04:48:06.601Z,96686.69
2023-03-25T04:50:37.258Z,96688.97
2023-03-25T04:53:08.049Z,96697.06
2023-03-25T04:55:35.891Z,96689.28
2023-03-25T04:58:07.845Z,96689.06
2023-03-25T05:00:35.670Z,96695.38
2023-03-25T05:03:02.853Z,96690.78
2023-03-25T05:05:45.706Z,96686.78
2023-03-25T05:08:15.535Z,96691.31
2023-03-25T05:10:43.609Z,96679.13
2023-03-25T05:13:12.937Z,96693.00
2023-03-25T05:15:48.417Z,96693.38
2023-03-25T05:18:22.528Z,96690.31
2023-03-25T05:20:53.643Z,96696.81
2023-03-25T05:23:26.019Z,96696.56
2023-03-25T05:25:54.053Z,96693.03
2023-03-25T05:28:34.780Z,96696.44
2023-03-25T05:31:08.381Z,96694.84
2023-03-25T05:33:55.136Z,96695.53
2023-03-25T05:36:25.708Z,96694.38
2023-03-25T05:38:58.916Z,96695.66
2023-03-25T05:41:39.258Z,96688.00
2023-03-25T05:44:07.324Z,96685.38
2023-03-25T05:46:34.727Z,96686.75
2023-03-25T05:49:05.219Z,96689.31
2023-03-25T05:51:51.224Z,96682.84
2023-03-25T05:54:21.087Z,96684.41
2023-03-25T05:56:48.527Z,96678.69
2023-03-25T05:59:16.775Z,96681.19
2023-03-25T06:01:46.802Z,96686.31
2023-03-25T06:04:14.845Z,96687.50
2023-03-25T06:06:45.368Z,96679.25
2023-03-25T06:09:12.711Z,96676.88
2023-03-25T06:11:46.782Z,96673.53
2023-03-25T06:14:13.699Z,96669.28
2023-03-25T06:16:41.998Z,96675.00
2023-03-25T06:19:09.617Z,96673.63
2023-03-25T06:21:36.435Z,96675.72
2023-03-25T06:24:03.754Z,96672.19
2023-03-25T06:26:30.851Z,96666.91
2023-03-25T06:29:01.452Z,96661.13
2023-03-25T06:31:29.107Z,96669.81
2023-03-25T06:33:56.988Z,96671.94
2023-03-25T06:36:25.951Z,96662.75
2023-03-25T06:38:54.292Z,96668.56
2023-03-25T06:41:22.092Z,96663.72
2023-03-25T06:43:49.128Z,96670.19
2023-03-25T06:46:18.148Z,96667.09
2023-03-25T06:48:45.429Z,96666.97
2023-03-25T06:51:12.215Z,96664.91
2023-03-25T06:53:39.425Z,96666.13
2023-03-25T06:56:06.771Z,96667.28
2023-03-25T06:58:36.540Z,96668.03
2023-03-25T07:01:07.852Z,96665.13
2023-03-25T07:03:39.281Z,96667.88
2023-03-25T07:06:07.198Z,96663.44
2023-03-25T07:08:34.764Z,96660.72
2023-03-25T07:11:04.167Z,96661.59
2023-03-25T07:13:34.304Z,96655.00
2023-03-25T07:16:01.701Z,96652.59
2023-03-25T07:18:29.231Z,96646.97
2023-03-25T07:20:59.266Z,96649.06
2023-03-25T07:23:26.523Z,96648.13
2023-03-25T07:25:53.593Z,96643.47
2023-03-25T07:28:23.218Z,96642.56
2023-03-25T07:30:50.537Z,96650.84
2023-03-25T07:33:17.764Z,96643.50
2023-03-25T07:35:45.131Z,96633.91
2023-03-25T07:38:12.317Z,96641.88
2023-03-25T07:40:39.005Z,96638.41
2023-03-25T07:43:06.376Z,96636.72
2023-03-25T07:45:55.968Z,96636.91
2023-03-25T07:48:23.181Z,96641.59
2023-03-25T07:50:53.127Z,96648.59
2023-03-25T07:53:20.028Z,96638.91
2023-03-25T07:55:46.958Z,96645.63
2023-03-25T07:58:13.944Z,96632.94
2023-03-25T08:00:40.749Z,96640.44
2023-03-25T08:03:08.459Z,96643.47
2023-03-25T08:05:36.319Z,96640.50
2023-03-25T08:08:06.625Z,96644.59
2023-03-25T08:10:35.284Z,96642.47
2023-03-25T08:13:03.597Z,96639.97
2023-03-25T08:15:30.854Z,96632.31
2023-03-25T08:17:58.050Z,96634.38
2023-03-25T08:20:25.017Z,96642.34
2023-03-25T08:22:51.737Z,96634.47
2023-03-25T08:25:25.205Z,96633.72
2023-03-25T08:27:54.985Z,96625.88
2023-03-25T08:30:25.852Z,96630.97
2023-03-25T08:32:59.316Z,96637.47
2023-03-25T08:35:29.604Z,96626.00
2023-03-25T08:38:00.102Z,96637.47
2023-03-25T08:40:28.286Z,96629.59
2023-03-25T08:42:55.600Z,96628.84
2023-03-25T08:45:23.170Z,96623.06
2023-03-25T08:47:50.536Z,96629.38
2023-03-25T08:50:18.444Z,96612.66
2023-03-25T08:52:46.598Z,96616.97
2023-03-25T08:55:16.270Z,96616.38
2023-03-25T08:57:43.448Z,96615.44
2023-03-25T09:00:14.163Z,96619.47
2023-03-25T09:02:42.691Z,96618.75
2023-03-25T09:05:16.393Z,96619.56
2023-03-25T09:07:44.058Z,96610.72
2023-03-25T09:10:13.720Z,96614.59
2023-03-25T09:12:41.143Z,96617.28
2023-03-25T09:15:13.273Z,96613.69
2023-03-25T09:17:41.784Z,96602.59
2023-03-25T09:22:51.671Z,96610.84
2023-03-25T09:25:20.838Z,96607.94
2023-03-25T09:27:48.811Z,96601.25
2023-03-25T09:30:23.406Z,96601.41
2023-03-25T09:32:55.985Z,96596.25
2023-03-25T09:35:23.320Z,96594.56
2023-03-25T09:37:59.865Z,96592.56
2023-03-25T09:40:27.347Z,96596.81
2023-03-25T09:43:19.431Z,96594.72
2023-03-25T09:45:51.969Z,96593.22
2023-03-25T09:48:30.986Z,96590.25
2023-03-25T09:51:08.352Z,96590.34
2023-03-25T09:53:45.872Z,96581.72
2023-03-25T09:56:19.897Z,96590.25
2023-03-25T09:58:52.564Z,96589.91
2023-03-25T10:01:55.677Z,96579.78
2023-03-25T10:05:11.059Z,96572.47
2023-03-25T10:07:59.743Z,96569.09
2023-03-25T10:10:38.512Z,96564.59
2023-03-25T10:13:40.574Z,96556.28
2023-03-25T10:16:13.656Z,96561.75
2023-03-25T10:19:14.413Z,96556.03
2023-03-25T10:22:09.423Z,96548.22
2023-03-25T10:24:51.807Z,96547.28
2023-03-25T10:27:45.926Z,96530.38
2023-03-25T10:30:41.777Z,96535.31
2023-03-25T10:33:37.240Z,96526.88
2023-03-25T10:36:08.466Z,96526.28
2023-03-25T10:38:39.326Z,96524.66
2023-03-25T10:41:36.483Z,96510.78
2023-03-25T10:44:10.193Z,96503.88
2023-03-25T10:46:48.076Z,96503.78
2023-03-25T10:49:19.357Z,96504.38
2023-03-25T10:51:48.371Z,96500.34
2023-03-25T10:54:17.984Z,96492.78
2023-03-25T10:56:59.143Z,96493.72
2023-03-25T10:59:37.892Z,96491.94
2023-03-25T11:02:16.037Z,96493.66
2023-03-25T11:04:44.929Z,96486.34
2023-03-25T11:07:27.731Z,96484.88
2023-03-25T11:09:54.623Z,96487.88
2023-03-25T11:12:33.308Z,96481.72
2023-03-25T11:15:15.460Z,96487.72
2023-03-25T11:17:45.215Z,96481.06
2023-03-25T11:20:38.110Z,96491.44
2023-03-25T11:23:34.447Z,96478.97
2023-03-25T11:26:08.719Z,96481.75
2023-03-25T11:28:40.417Z,96469.59
2023-03-25T11:31:18.469Z,96475.63
2023-03-25T11:34:00.769Z,96467.09
2023-03-25T11:36:30.924Z,96460.91
2023-03-25T11:39:01.777Z,96455.94
2023-03-25T11:41:32.273Z,96462.56
2023-03-25T11:44:00.245Z,96463.59
2023-03-25T11:46:27.346Z,96462.88
2023-03-25T11:48:55.718Z,96465.53
2023-03-25T11:51:32.882Z,96460.19
2023-03-25T11:54:09.928Z,96453.34
2023-03-25T11:56:42.666Z,96458.47
2023-03-25T11:59:25.187Z,96452.88
2023-03-25T12:02:14.896Z,96453.78
2023-03-25T12:05:12.867Z,96446.63
2023-03-25T12:07:49.169Z,96441.91
2023-03-25T12:11:00.118Z,96447.94
2023-03-25T12:13:40.563Z,96442.59
2023-03-25T12:16:23.757Z,96454.81
2023-03-25T12:19:02.756Z,96452.72
2023-03-25T12:21:48.230Z,96438.13
2023-03-25T12:24:41.310Z,96440.00
2023-03-25T12:27:29.711Z,96445.38
2023-03-25T12:30:25.107Z,96430.78
2023-03-25T12:33:22.363Z,96436.50
2023-03-25T12:35:55.164Z,96443.56
2023-03-25T12:38:36.831Z,96427.75
2023-03-25T12:41:22.518Z,96431.47
2023-03-25T12:44:01.291Z,96427.28
2023-03-25T12:46:36.687Z,96435.22
2023-03-25T12:49:07.222Z,96433.38
2023-03-25T12:52:00.508Z,96425.97
2023-03-25T12:54:39.410Z,96431.16
2023-03-25T12:57:32.681Z,96430.06
2023-03-25T13:00:26.767Z,96434.84
2023-03-25T13:03:31.247Z,96435.47
2023-03-25T13:06:20.021Z,96434.56
2023-03-25T13:09:23.504Z,96423.53
2023-03-25T13:15:03.244Z,96425.16
2023-03-25T13:17:39.186Z,96412.22
2023-03-25T13:20:11.317Z,96418.00
2023-03-25T13:22:51.434Z,96415.03
2023-03-25T13:25:28.342Z,96414.00
2023-03-25T13:28:02.191Z,96422.75
2023-03-25T13:30:42.411Z,96419.47
2023-03-25T13:33:16.919Z,96413.72
2023-03-25T13:35:54.256Z,96415.84
2023-03-25T13:38:33.647Z,96414.91
2023-03-25T13:41:27.369Z,96406.16
2023-03-25T13:44:07.339Z,96407.53
2023-03-25T13:46:52.004Z,96405.34
2023-03-25T13:49:28.416Z,96410.25
2023-03-25T13:52:04.987Z,96401.34
2023-03-25T13:54:48.793Z,96413.47
2023-03-25T13:57:32.369Z,96407.06
2023-03-25T14:00:21.775Z,96407.25
2023-03-25T14:03:10.113Z,96408.13
2023-03-25T14:06:09.206Z,96410.22
2023-03-25T14:09:06.686Z,96413.63
2023-03-25T14:12:10.224Z,96408.72
2023-03-25T14:14:45.613Z,96401.78
2023-03-25T14:19:58.834Z,96408.94
2023-03-25T14:22:32.169Z,96410.22
2023-03-25T14:25:00.372Z,96409.09
2023-03-25T14:27:34.211Z,96407.91
2023-03-25T14:30:08.942Z,96411.28
2023-03-25T14:32:41.703Z,96405.13
2023-03-25T14:35:38.722Z,96413.34
2023-03-25T14:38:09.044Z,96410.16
2023-03-25T14:43:30.047Z,96404.50
2023-03-25T14:46:18.769Z,96403.47
2023-03-25T14:48:50.584Z,96407.25
2023-03-25T14:51:28.192Z,96407.88
2023-03-25T14:54:16.832Z,96402.56
2023-03-25T14:56:55.511Z,96403.63
2023-03-25T14:59:29.287Z,96408.38
2023-03-25T15:02:12.337Z,96413.38
2023-03-25T15:04:44.453Z,96414.28
2023-03-25T15:07:20.826Z,96413.94
2023-03-25T15:09:57.775Z,96416.00
2023-03-25T15:12:27.440Z,96405.84
2023-03-25T15:15:27.089Z,96417.75
2023-03-25T15:18:11.258Z,96415.28
2023-03-25T15:24:48.280Z,96424.91
2023-03-25T15:27:48.234Z,96421.91
2023-03-25T15:33:42.517Z,96425.56
2023-03-25T15:36:12.236Z,96432.34
2023-03-25T15:38:59.885Z,96428.47
2023-03-25T15:41:35.851Z,96432.59
2023-03-25T15:44:13.835Z,96435.47
2023-03-25T15:47:00.300Z,96444.50
2023-03-25T15:49:42.007Z,96448.78
2023-03-25T15:52:12.031Z,96448.13
2023-03-25T15:54:56.608Z,96448.50
2023-03-25T15:57:33.348Z,96463.66
2023-03-25T16:00:12.141Z,96475.84
2023-03-25T16:03:07.509Z,96486.06
2023-03-25T16:05:39.256Z,96479.00
2023-03-25T16:08:23.301Z,96488.34
2023-03-25T16:10:50.820Z,96480.91
2023-03-25T16:13:24.269Z,96485.50
2023-03-25T16:16:02.068Z,96482.53
2023-03-25T16:18:32.716Z,96475.72
2023-03-25T16:21:04.295Z,96473.81
2023-03-25T16:23:36.566Z,96483.38
2023-03-25T16:26:11.508Z,96483.72
2023-03-25T16:28:47.057Z,96499.53
2023-03-25T16:31:36.503Z,96499.41
2023-03-25T16:34:13.857Z,96509.97
2023-03-25T16:36:49.987Z,96515.78
2023-03-25T16:39:18.668Z,96529.88
2023-03-25T16:41:47.892Z,96533.47
2023-03-25T16:44:33.109Z,96532.03
2023-03-25T16:47:02.314Z,96547.94
2023-03-25T16:49:37.818Z,96556.34
2023-03-25T16:52:14.719Z,96557.09
2023-03-25T16:55:11.367Z,96555.66
2023-03-25T16:57:41.622Z,96559.09
2023-03-25T17:00:23.098Z,96549.00
2023-03-25T17:02:51.143Z,96548.75
2023-03-25T17:05:35.514Z,96563.22
2023-03-25T17:08:17.890Z,96569.59
2023-03-25T17:10:53.769Z,96561.47
2023-03-25T17:13:34.304Z,96575.56
2023-03-25T17:16:02.159Z,96571.22
2023-03-25T17:18:33.414Z,96572.94
2023-03-25T17:21:01.795Z,96575.81
2023-03-25T17:23:48.872Z,96572.56
2023-03-25T17:26:21.423Z,96569.44
2023-03-25T17:28:51.522Z,96576.31
2023-03-25T17:31:45.202Z,96577.53
2023-03-25T17:34:18.239Z,96573.28
2023-03-25T17:36:58.220Z,96568.81
2023-03-25T17:39:35.572Z,96562.06
2023-03-25T17:42:15.208Z,96558.81
2023-03-25T17:44:52.136Z,96550.22
2023-03-25T17:47:24.660Z,96532.19
2023-03-25T17:49:55.986Z,96524.13
2023-03-25T17:52:24.092Z,96510.91
2023-03-25T17:54:52.340Z,96489.78
2023-03-25T17:57:21.011Z,96494.13
2023-03-25T17:59:58.672Z,96490.84
2023-03-25T18:02:31.237Z,96485.94
2023-03-25T18:04:59.636Z,96482.94
2023-03-25T18:10:23.177Z,96462.84
2023-03-25T18:12:59.962Z,96462.50
2023-03-25T18:15:28.751Z,96459.53
2023-03-25T18:17:59.860Z,96465.34
2023-03-25T18:20:41.503Z,96478.22
2023-03-25T18:23:13.731Z,96463.88
2023-03-25T18:25:42.913Z,96458.25
2023-03-25T18:28:12.944Z,96459.97
2023-03-25T18:30:46.724Z,96455.03
2023-03-25T18:33:20.087Z,96459.00
2023-03-25T18:35:48.216Z,96457.38
2023-03-25T18:38:37.056Z,96464.63
2023-03-25T18:41:18.028Z,96463.94
2023-03-25T18:43:52.420Z,96461.50
2023-03-25T18:46:29.274Z,96464.63
2023-03-25T18:52:00.176Z,96463.94
2023-03-25T18:54:27.710Z,96459.69
2023-03-25T18:57:01.581Z,96461.81
2023-03-25T18:59:30.788Z,96458.03
2023-03-25T19:01:58.916Z,96458.38
2023-03-25T19:04:32.885Z,96462.00
2023-03-25T19:07:05.990Z,96460.72
2023-03-25T19:09:53.410Z,96448.50
2023-03-25T19:12:24.012Z,96448.22
2023-03-25T19:15:02.506Z,96459.91
2023-03-25T19:17:39.133Z,96455.81
2023-03-25T19:20:29.896Z,96445.28
2023-03-25T19:23:08.734Z,96455.13
2023-03-25T19:25:43.185Z,96452.03
2023-03-25T19:28:42.308Z,96448.75
2023-03-25T19:31:14.575Z,96451.53
2023-03-25T19:33:43.011Z,96451.22
2023-03-25T19:36:17.909Z,96447.59
2023-03-25T19:38:59.224Z,96451.25
2023-03-25T19:41:27.659Z,96459.47
2023-03-25T19:43:56.600Z,96445.81
2023-03-25T19:47:00.760Z,96443.66
2023-03-25T19:49:39.296Z,96437.38
2023-03-25T19:52:35.347Z,96440.72
2023-03-25T19:58:17.504Z,96445.63
2023-03-25T20:01:02.192Z,96445.16
2023-03-25T20:06:21.538Z,96434.41
2023-03-25T20:08:58.289Z,96434.75
2023-03-25T20:11:29.337Z,96431.31
2023-03-25T20:16:42.659Z,96444.28
2023-03-25T20:19:28.230Z,96445.75
2023-03-25T20:22:04.498Z,96439.97
2023-03-25T20:24:44.145Z,96438.00
2023-03-25T20:27:45.150Z,96437.34
2023-03-25T20:30:26.877Z,96424.84
2023-03-25T20:36:05.052Z,96437.00
2023-03-25T20:38:56.117Z,96431.53
2023-03-25T20:41:28.552Z,96427.72
2023-03-25T20:43:57.948Z,96425.09
2023-03-25T20:46:44.290Z,96425.78
2023-03-25T20:49:14.617Z,96421.63
2023-03-25T20:58:50.934Z,96432.22
2023-03-25T21:01:27.684Z,96426.91
2023-03-25T21:06:43.887Z,96432.50
2023-03-25T21:09:11.967Z,96430.72
2023-03-25T21:11:40.077Z,96430.53
2023-03-25T21:14:12.284Z,96419.66
2023-03-25T21:16:41.004Z,96429.44
2023-03-25T21:19:14.678Z,96416.59
2023-03-25T21:21:45.610Z,96429.41
2023-03-25T21:24:14.959Z,96416.91
2023-03-25T21:26:45.904Z,96422.84
2023-03-25T21:29:19.444Z,96419.84
2023-03-25T21:31:57.213Z,96418.88
2023-03-25T21:34:25.671Z,96418.88
2023-03-25T21:36:59.282Z,96422.28
2023-03-25T21:39:27.304Z,96424.41
2023-03-25T21:42:25.944Z,96427.03
2023-03-25T21:44:56.280Z,96421.34
2023-03-25T21:47:24.448Z,96421.03
2023-03-25T21:49:54.930Z,96424.28
2023-03-25T21:52:25.454Z,96422.47
2023-03-25T21:54:55.242Z,96435.09
2023-03-25T21:57:36.842Z,96446.75
2023-03-25T22:00:34.600Z,96462.38
2023-03-25T22:03:20.960Z,96489.75
2023-03-25T22:06:11.044Z,96512.47
2023-03-25T22:08:42.934Z,96521.53
2023-03-25T22:11:38.258Z,96523.41
2023-03-25T22:14:06.140Z,96528.59
2023-03-25T22:16:37.269Z,96536.88
2023-03-25T22:19:09.625Z,96546.31
2023-03-25T22:25:18.136Z,96539.63
2023-03-25T22:27:43.655Z,96544.88
2023-03-25T22:30:12.549Z,96552.00
2023-03-25T22:32:42.322Z,96556.38
2023-03-25T22:35:16.931Z,96560.72
2023-03-25T22:38:02.988Z,96569.19
2023-03-25T22:40:37.440Z,96586.84
2023-03-25T22:43:11.711Z,96587.06
2023-03-25T22:45:43.271Z,96587.56
2023-03-25T22:48:45.953Z,96595.59
2023-03-25T22:51:26.369Z,96592.19
2023-03-25T22:53:57.153Z,96593.53
2023-03-25T22:56:29.426Z,96606.22
2023-03-25T22:58:57.020Z,96611.16
2023-03-25T23:01:26.977Z,96608.59
2023-03-25T23:03:55.616Z,96621.75
2023-03-25T23:06:24.189Z,96620.75
2023-03-25T23:09:11.665Z,96620.75
2023-03-25T23:11:43.490Z,96615.50
2023-03-25T23:15:04.037Z,96613.84
2023-03-25T23:17:29.597Z,96618.47
2023-03-25T23:20:00.189Z,96613.94
2023-03-25T23:22:28.940Z,96612.00
2023-03-25T23:24:59.362Z,96604.66
2023-03-25T23:27:29.134Z,96604.81
2023-03-25T23:29:56.994Z,96585.72
2023-03-25T23:32:24.605Z,96581.97
2023-03-25T23:35:06.443Z,96575.06
2023-03-25T23:38:19.051Z,96563.03
2023-03-25T23:40:47.145Z,96564.16
2023-03-25T23:43:22.617Z,96565.13
2023-03-25T23:45:56.313Z,96565.41
2023-03-25T23:51:14.999Z,96567.25
2023-03-25T23:53:48.806Z,96561.22
2023-03-25T23:56:21.921Z,96557.03
2023-03-25T23:58:50.498Z,96564.84
